Terminal Aerodrome Forecast
Issued by NWS Charleston, WV

Current Version | Previous Version | Text Only | Print | Product List | Glossary Off
Versions: 1 2 3 4 5 6 7 8 9 10 11 12 13 14 15 16 17 18 19 20 21 22 23

000
FTUS41 KRLX 262300
TAFCRW
TAF
KCRW 262334Z 2700/2724 00000KT 4SM BR OVC004
     FM270100 00000KT 2SM BR BKN005 BKN100
     FM270400 00000KT 4SM BR BKN010 BKN080
     FM271400 30004KT 5SM BR BKN015
     FM271600 29008KT 5SM BR BKN020
     FM271700 29008KT 6SM BR BKN025
     FM272100 28008KT 5SM -SHSN BKN030=

USA.gov is the U.S. government's official web portal to all federal, state and local government web resources and services.